Rio Vermelho, Brazil
Current Conditions -  °F | °C
As of 6:00 AM on Sunday 23 Nov 2014 (Local Time) from SBLS Reporting Station
Overcast Overcast  
Wind Chill: 70°   Ceiling: 800
Heat Index: 70°   Visibility: 6mi
Dew Point: 64°   Wind: 3mph
Humidity: 83%   Direction: 280°W
Pressure: 30"   Gusts: NA
Location:  18.29°S, 43.01°W
Report Text: SBLS 230800Z 28003KT 9999 BKN008 SCT015 OVC100 21/18 Q1016
Loading
Personal Weather Stations






























Interactive Weather Map New forecast layout! Learn more

10-Day Weather Forecast

Advertisements
Track Severe Weather on mobile